createdAt,value
2017-03-27T00:00:16.793Z,6.88
2017-03-27T00:02:24.452Z,6.83
2017-03-27T00:03:24.502Z,6.77
2017-03-27T00:05:22.381Z,6.93
2017-03-27T00:06:39.647Z,6.75
2017-03-27T00:07:21.819Z,6.73
2017-03-27T00:09:34.790Z,6.81
2017-03-27T00:10:24.110Z,6.74
2017-03-27T00:11:22.513Z,6.83
2017-03-27T00:13:34.842Z,6.67
2017-03-27T00:14:27.091Z,6.82
2017-03-27T00:16:34.469Z,6.61
2017-03-27T00:17:24.063Z,6.40
2017-03-27T00:21:21.793Z,6.04
2017-03-27T00:22:34.012Z,6.02
2017-03-27T00:24:18.900Z,6.08
2017-03-27T00:25:24.303Z,6.20
2017-03-27T00:28:34.872Z,5.79
2017-03-27T00:32:29.130Z,5.58
2017-03-27T00:33:22.263Z,5.71
2017-03-27T00:34:24.574Z,5.67
2017-03-27T00:35:32.883Z,5.77
2017-03-27T00:37:23.854Z,6.06
2017-03-27T00:42:24.647Z,5.70
2017-03-27T00:46:17.512Z,5.75
2017-03-27T00:48:34.441Z,5.11
2017-03-27T00:49:34.542Z,5.57
2017-03-27T00:50:22.523Z,5.51
2017-03-27T00:53:37.424Z,5.38
2017-03-27T00:55:19.540Z,5.23
2017-03-27T00:56:34.212Z,5.48
2017-03-27T00:59:16.681Z,5.49
2017-03-27T01:01:22.425Z,5.25
2017-03-27T01:02:24.005Z,5.34
2017-03-27T01:03:22.312Z,5.28
2017-03-27T01:06:23.867Z,5.47
2017-03-27T01:07:22.298Z,5.34
2017-03-27T01:08:24.048Z,5.38
2017-03-27T01:09:24.434Z,5.32
2017-03-27T01:10:21.523Z,5.35
2017-03-27T01:12:22.200Z,5.25
2017-03-27T01:14:28.694Z,5.37
2017-03-27T01:16:34.575Z,5.60
2017-03-27T01:17:21.717Z,5.56
2017-03-27T01:18:22.012Z,5.69
2017-03-27T01:19:17.621Z,5.45
2017-03-27T01:20:17.085Z,5.30
2017-03-27T01:21:16.728Z,5.31
2017-03-27T01:22:21.776Z,5.56
2017-03-27T01:23:21.760Z,5.49
2017-03-27T01:24:21.779Z,5.67
2017-03-27T01:25:22.489Z,5.62
2017-03-27T01:26:22.284Z,5.77
2017-03-27T01:27:22.300Z,5.66
2017-03-27T01:28:22.396Z,5.63
2017-03-27T01:29:21.609Z,5.64
2017-03-27T01:30:22.582Z,5.65
2017-03-27T01:31:21.849Z,5.49
2017-03-27T01:32:21.767Z,5.48
2017-03-27T01:33:21.679Z,5.42
2017-03-27T01:34:21.796Z,5.63
2017-03-27T01:35:22.748Z,5.55
2017-03-27T01:36:21.848Z,5.46
2017-03-27T01:37:18.200Z,5.74
2017-03-27T01:38:22.129Z,5.81
2017-03-27T01:39:21.704Z,5.82
2017-03-27T01:40:17.030Z,5.73
2017-03-27T01:41:22.139Z,5.84
2017-03-27T01:42:21.688Z,5.81
2017-03-27T01:43:21.895Z,5.76
2017-03-27T01:44:22.580Z,5.72
2017-03-27T01:45:17.604Z,5.65
2017-03-27T01:46:22.266Z,5.72
2017-03-27T01:47:21.589Z,5.76
2017-03-27T01:48:16.989Z,5.60
2017-03-27T01:49:22.386Z,5.57
2017-03-27T01:50:22.466Z,5.57
2017-03-27T01:51:17.025Z,5.44
2017-03-27T01:52:21.841Z,5.43
2017-03-27T01:53:21.962Z,5.05
2017-03-27T01:54:22.379Z,5.02
2017-03-27T01:55:22.197Z,5.24
2017-03-27T01:56:22.006Z,5.12
2017-03-27T01:57:22.337Z,5.03
2017-03-27T01:58:29.082Z,4.99
2017-03-27T01:59:22.006Z,5.08
2017-03-27T02:00:21.506Z,5.01
2017-03-27T02:01:22.030Z,4.87
2017-03-27T02:02:22.290Z,4.84
2017-03-27T02:03:22.231Z,4.82
2017-03-27T02:04:22.290Z,4.78
2017-03-27T02:05:22.171Z,4.89
2017-03-27T02:06:22.129Z,4.97
2017-03-27T02:07:35.297Z,4.87
2017-03-27T02:08:22.166Z,4.92
2017-03-27T02:09:21.730Z,5.02
2017-03-27T02:10:21.758Z,4.87
2017-03-27T02:11:17.591Z,4.89
2017-03-27T02:12:21.929Z,5.06
2017-03-27T02:13:21.821Z,4.80
2017-03-27T02:14:22.198Z,4.85
2017-03-27T02:15:21.940Z,4.98
2017-03-27T02:16:17.370Z,4.82
2017-03-27T02:17:22.185Z,5.01
2017-03-27T02:18:21.871Z,5.05
2017-03-27T02:19:21.517Z,4.97
2017-03-27T02:20:17.344Z,4.92
2017-03-27T02:21:22.030Z,4.79
2017-03-27T02:22:22.122Z,4.66
2017-03-27T02:23:22.258Z,4.77
2017-03-27T02:24:21.920Z,5.05
2017-03-27T02:25:21.819Z,5.22
2017-03-27T02:26:22.186Z,5.03
2017-03-27T02:27:21.963Z,4.94
2017-03-27T02:28:21.920Z,5.18
2017-03-27T02:29:22.029Z,5.03
2017-03-27T02:30:21.950Z,4.81
2017-03-27T02:31:21.819Z,4.93
2017-03-27T02:32:21.901Z,5.20
2017-03-27T02:33:21.862Z,4.63
2017-03-27T02:34:21.998Z,4.94
2017-03-27T02:35:22.578Z,4.97
2017-03-27T02:36:22.470Z,5.17
2017-03-27T02:37:22.589Z,5.24
2017-03-27T02:38:22.580Z,5.04
2017-03-27T02:39:22.087Z,5.29
2017-03-27T02:41:21.710Z,5.23
2017-03-27T02:42:21.814Z,5.15
2017-03-27T02:43:22.348Z,5.02
2017-03-27T02:44:21.497Z,5.22
2017-03-27T02:45:21.921Z,5.20
2017-03-27T02:46:22.289Z,5.03
2017-03-27T02:47:22.002Z,5.04
2017-03-27T02:48:22.360Z,4.92
2017-03-27T02:49:22.356Z,5.00
2017-03-27T02:50:22.240Z,5.03
2017-03-27T02:51:22.121Z,4.96
2017-03-27T02:52:21.950Z,5.01
2017-03-27T02:53:22.219Z,5.08
2017-03-27T02:54:22.287Z,5.15
2017-03-27T02:55:22.260Z,5.14
2017-03-27T02:56:21.477Z,5.23
2017-03-27T02:57:22.371Z,5.05
2017-03-27T02:58:22.581Z,5.05
2017-03-27T02:59:22.583Z,5.15
2017-03-27T03:00:22.500Z,5.14
2017-03-27T03:01:34.347Z,5.18
2017-03-27T03:02:21.630Z,4.97
2017-03-27T03:03:22.038Z,5.06
2017-03-27T03:04:21.469Z,5.03
2017-03-27T03:05:22.457Z,5.03
2017-03-27T03:06:17.311Z,4.89
2017-03-27T03:07:22.131Z,4.99
2017-03-27T03:08:22.583Z,5.00
2017-03-27T03:09:22.580Z,4.71
2017-03-27T03:10:21.580Z,5.01
2017-03-27T03:11:22.358Z,5.13
2017-03-27T03:12:21.589Z,5.08
2017-03-27T03:13:22.290Z,5.04
2017-03-27T03:14:21.562Z,5.14
2017-03-27T03:15:22.180Z,4.99
2017-03-27T03:16:17.109Z,4.98
2017-03-27T03:17:22.166Z,4.99
2017-03-27T03:18:22.029Z,5.11
2017-03-27T03:19:21.988Z,5.04
2017-03-27T03:20:23.391Z,4.88
2017-03-27T03:21:17.380Z,5.04
2017-03-27T03:22:21.591Z,5.09
2017-03-27T03:23:26.770Z,5.12
2017-03-27T03:24:21.822Z,5.03
2017-03-27T03:25:21.792Z,5.01
2017-03-27T03:26:22.085Z,5.03
2017-03-27T03:27:21.939Z,5.16
2017-03-27T03:28:17.306Z,4.96
2017-03-27T03:29:22.110Z,4.87
2017-03-27T03:30:22.123Z,4.71
2017-03-27T03:31:34.378Z,4.86
2017-03-27T03:32:21.662Z,4.98
2017-03-27T03:33:21.528Z,5.03
2017-03-27T03:34:21.805Z,4.91
2017-03-27T03:35:22.583Z,4.80
2017-03-27T03:36:22.352Z,4.73
2017-03-27T03:37:17.457Z,4.86
2017-03-27T03:38:22.384Z,4.90
2017-03-27T03:39:16.920Z,5.01
2017-03-27T03:40:21.803Z,5.04
2017-03-27T03:41:17.134Z,5.12
2017-03-27T03:42:22.421Z,4.91
2017-03-27T03:43:22.128Z,4.85
2017-03-27T03:44:17.581Z,4.80
2017-03-27T03:45:22.153Z,4.67
2017-03-27T03:46:22.523Z,4.74
2017-03-27T03:47:21.580Z,4.68
2017-03-27T03:48:21.593Z,4.70
2017-03-27T03:49:21.712Z,4.76
2017-03-27T03:50:21.997Z,4.93
2017-03-27T03:51:21.953Z,4.71
2017-03-27T03:52:22.025Z,4.87
2017-03-27T03:53:22.336Z,4.86
2017-03-27T03:54:22.390Z,4.84
2017-03-27T03:55:22.540Z,4.77
2017-03-27T03:56:22.208Z,4.65
2017-03-27T03:57:22.563Z,4.64
2017-03-27T03:58:22.584Z,4.67
2017-03-27T03:59:21.803Z,4.58
2017-03-27T04:00:22.411Z,4.38
2017-03-27T04:01:17.265Z,4.54
2017-03-27T04:02:18.336Z,4.36
2017-03-27T04:03:21.896Z,4.46
2017-03-27T04:04:21.832Z,4.63
2017-03-27T04:05:22.117Z,4.40
2017-03-27T04:06:22.281Z,4.41
2017-03-27T04:07:22.661Z,4.25
2017-03-27T04:08:22.735Z,4.39
2017-03-27T04:09:21.984Z,4.40
2017-03-27T04:10:17.256Z,4.65
2017-03-27T04:11:21.704Z,4.55
2017-03-27T04:12:22.182Z,4.42
2017-03-27T04:13:21.764Z,4.44
2017-03-27T04:14:21.585Z,4.62
2017-03-27T04:15:21.677Z,4.32
2017-03-27T04:16:17.394Z,4.42
2017-03-27T04:17:22.128Z,4.54
2017-03-27T04:18:22.517Z,4.68
2017-03-27T04:19:22.306Z,4.62
2017-03-27T04:20:22.384Z,4.37
2017-03-27T04:21:22.493Z,4.19
2017-03-27T04:22:22.805Z,4.34
2017-03-27T04:23:22.549Z,4.42
2017-03-27T04:24:21.584Z,4.49
2017-03-27T04:26:22.584Z,4.57
2017-03-27T04:27:22.435Z,4.73
2017-03-27T04:28:22.465Z,4.62
2017-03-27T04:29:17.407Z,4.51
2017-03-27T04:30:21.546Z,4.53
2017-03-27T04:31:22.586Z,4.18
2017-03-27T04:32:17.524Z,4.07
2017-03-27T04:33:22.363Z,4.34
2017-03-27T04:34:22.447Z,4.40
2017-03-27T04:35:21.945Z,4.39
2017-03-27T04:36:21.729Z,4.56
2017-03-27T04:37:17.148Z,4.61
2017-03-27T04:38:22.220Z,4.54
2017-03-27T04:39:22.273Z,4.10
2017-03-27T04:40:21.675Z,4.06
2017-03-27T04:41:22.377Z,4.05
2017-03-27T04:42:22.343Z,4.31
2017-03-27T04:43:17.474Z,4.35
2017-03-27T04:44:21.748Z,4.39
2017-03-27T04:45:21.857Z,4.18
2017-03-27T04:46:22.533Z,4.48
2017-03-27T04:47:17.447Z,4.45
2017-03-27T04:48:20.858Z,4.42
2017-03-27T04:49:21.757Z,4.35
2017-03-27T04:50:22.061Z,4.32
2017-03-27T04:51:22.066Z,4.18
2017-03-27T04:52:22.404Z,4.37
2017-03-27T04:53:22.512Z,4.27
2017-03-27T04:54:22.746Z,4.36
2017-03-27T04:55:22.407Z,4.14
2017-03-27T04:56:22.690Z,4.05
2017-03-27T04:57:22.344Z,4.48
2017-03-27T04:58:22.455Z,4.46
2017-03-27T04:59:22.543Z,4.05
2017-03-27T05:00:24.604Z,4.20
2017-03-27T05:01:22.207Z,4.40
2017-03-27T05:02:22.005Z,4.45
2017-03-27T05:03:22.125Z,4.43
2017-03-27T05:04:22.548Z,4.43
2017-03-27T05:05:22.498Z,4.10
2017-03-27T05:06:22.343Z,4.32
2017-03-27T05:07:22.115Z,4.48
2017-03-27T05:08:16.826Z,4.50
2017-03-27T05:09:22.825Z,4.33
2017-03-27T05:10:16.918Z,4.46
2017-03-27T05:11:22.203Z,4.03
2017-03-27T05:12:17.645Z,4.15
2017-03-27T05:13:22.036Z,4.27
2017-03-27T05:14:22.607Z,4.45
2017-03-27T05:15:21.533Z,4.48
2017-03-27T05:16:29.005Z,4.34
2017-03-27T05:17:22.045Z,4.39
2017-03-27T05:18:22.856Z,4.40
2017-03-27T05:19:22.742Z,4.20
2017-03-27T05:20:21.980Z,4.23
2017-03-27T05:21:22.493Z,4.31
2017-03-27T05:22:21.825Z,4.51
2017-03-27T05:23:21.794Z,4.53
2017-03-27T05:24:22.014Z,4.63
2017-03-27T05:25:22.914Z,4.62
2017-03-27T05:26:16.932Z,4.67
2017-03-27T05:27:22.272Z,4.60
2017-03-27T05:28:21.946Z,4.47
2017-03-27T05:29:22.125Z,4.51
2017-03-27T05:30:22.104Z,4.58
2017-03-27T05:31:22.642Z,4.70
2017-03-27T05:32:22.112Z,4.58
2017-03-27T05:33:21.785Z,4.60
2017-03-27T05:34:22.014Z,4.50
2017-03-27T05:35:22.725Z,4.44
2017-03-27T05:36:21.801Z,4.50
2017-03-27T05:37:17.051Z,4.51
2017-03-27T05:38:22.384Z,4.63
2017-03-27T05:39:22.489Z,4.74
2017-03-27T05:40:22.466Z,4.73
2017-03-27T05:41:17.360Z,4.67
2017-03-27T05:42:22.407Z,4.71
2017-03-27T05:43:22.472Z,4.77
2017-03-27T05:44:22.141Z,5.11
2017-03-27T05:45:21.684Z,4.88
2017-03-27T05:46:22.103Z,4.83
2017-03-27T05:47:22.157Z,4.77
2017-03-27T05:48:22.201Z,4.40
2017-03-27T05:49:21.694Z,4.66
2017-03-27T05:50:21.522Z,4.66
2017-03-27T05:51:26.842Z,4.58
2017-03-27T05:52:21.963Z,4.85
2017-03-27T05:53:21.835Z,4.88
2017-03-27T05:54:16.888Z,5.00
2017-03-27T05:55:21.886Z,4.99
2017-03-27T05:56:17.006Z,4.81
2017-03-27T05:57:22.030Z,4.72
2017-03-27T05:58:21.643Z,4.88
2017-03-27T05:59:21.725Z,5.05
2017-03-27T06:00:22.306Z,4.95
2017-03-27T06:01:34.982Z,5.02
2017-03-27T06:02:22.371Z,5.10
2017-03-27T06:03:22.220Z,5.03
2017-03-27T06:04:22.283Z,4.97
2017-03-27T06:05:22.092Z,4.93
2017-03-27T06:06:16.999Z,4.85
2017-03-27T06:07:21.692Z,4.98
2017-03-27T06:08:22.050Z,4.95
2017-03-27T06:09:22.225Z,5.16
2017-03-27T06:10:22.250Z,5.11
2017-03-27T06:11:21.851Z,5.25
2017-03-27T06:12:21.719Z,5.40
2017-03-27T06:13:21.760Z,5.25
2017-03-27T06:14:21.720Z,5.31
2017-03-27T06:15:26.622Z,5.17
2017-03-27T06:16:22.585Z,5.40
2017-03-27T06:17:35.022Z,5.41
2017-03-27T06:18:22.255Z,5.46
2017-03-27T06:19:22.300Z,5.45
2017-03-27T06:20:22.269Z,5.41
2017-03-27T06:21:22.451Z,5.46
2017-03-27T06:22:22.103Z,5.56
2017-03-27T06:23:22.174Z,5.51
2017-03-27T06:24:17.613Z,5.73
2017-03-27T06:25:27.327Z,5.52
2017-03-27T06:26:22.281Z,5.45
2017-03-27T06:27:22.349Z,5.28
2017-03-27T06:28:22.171Z,5.23
2017-03-27T06:29:21.686Z,5.22
2017-03-27T06:30:21.862Z,5.42
2017-03-27T06:31:21.973Z,5.52
2017-03-27T06:32:22.137Z,5.66
2017-03-27T06:33:22.419Z,5.62
2017-03-27T06:34:22.719Z,5.44
2017-03-27T06:35:21.972Z,5.40
2017-03-27T06:36:17.114Z,5.71
2017-03-27T06:37:22.037Z,5.68
2017-03-27T06:38:22.491Z,5.91
2017-03-27T06:39:21.841Z,5.92
2017-03-27T06:40:21.614Z,5.74
2017-03-27T06:41:21.682Z,5.68
2017-03-27T06:42:21.861Z,5.63
2017-03-27T06:43:21.631Z,5.74
2017-03-27T06:44:21.682Z,5.82
2017-03-27T06:45:21.761Z,5.73
2017-03-27T06:46:21.950Z,5.73
2017-03-27T06:47:22.063Z,5.76
2017-03-27T06:48:22.171Z,5.81
2017-03-27T06:49:21.941Z,5.70
2017-03-27T06:50:22.107Z,5.71
2017-03-27T06:51:22.171Z,5.83
2017-03-27T06:52:22.554Z,5.74
2017-03-27T06:53:17.054Z,5.99
2017-03-27T06:54:22.231Z,6.15
2017-03-27T06:55:22.278Z,6.08
2017-03-27T06:56:22.121Z,6.02
2017-03-27T06:57:17.177Z,6.19
2017-03-27T06:58:17.204Z,6.21
2017-03-27T06:59:22.121Z,6.26
2017-03-27T07:00:17.582Z,6.34
2017-03-27T07:01:22.460Z,6.21
2017-03-27T07:02:16.959Z,6.29
2017-03-27T07:03:21.931Z,6.29
2017-03-27T07:04:22.670Z,6.21
2017-03-27T07:05:22.033Z,6.26
2017-03-27T07:06:16.877Z,6.11
2017-03-27T07:07:22.783Z,6.25
2017-03-27T07:08:22.339Z,6.22
2017-03-27T07:09:17.571Z,6.15
2017-03-27T07:10:22.142Z,6.35
2017-03-27T07:11:22.439Z,6.34
2017-03-27T07:12:22.013Z,6.30
2017-03-27T07:13:22.171Z,6.31
2017-03-27T07:14:22.348Z,6.33
2017-03-27T07:15:21.990Z,6.41
2017-03-27T07:16:16.994Z,6.47
2017-03-27T07:17:21.717Z,6.62
2017-03-27T07:18:22.717Z,6.55
2017-03-27T07:19:16.683Z,6.63
2017-03-27T07:20:16.889Z,6.67
2017-03-27T07:21:22.020Z,6.67
2017-03-27T07:22:19.925Z,6.79
2017-03-27T07:23:22.220Z,6.65
2017-03-27T07:24:21.713Z,6.60
2017-03-27T07:25:21.669Z,6.45
2017-03-27T07:26:21.939Z,6.56
2017-03-27T07:27:22.035Z,6.54
2017-03-27T07:28:22.102Z,6.46
2017-03-27T07:29:22.210Z,6.63
2017-03-27T07:30:21.852Z,6.56
2017-03-27T07:31:22.426Z,6.76
2017-03-27T07:32:22.372Z,6.89
2017-03-27T07:33:22.026Z,6.84
2017-03-27T07:34:21.780Z,6.96
2017-03-27T07:35:21.526Z,6.97
2017-03-27T07:36:21.873Z,6.81
2017-03-27T07:37:21.712Z,6.87
2017-03-27T07:38:21.610Z,6.95
2017-03-27T07:39:27.870Z,6.98
2017-03-27T07:40:22.223Z,7.05
2017-03-27T07:41:21.609Z,7.15
2017-03-27T07:42:21.708Z,7.23
2017-03-27T07:43:22.583Z,7.30
2017-03-27T07:44:22.171Z,7.29
2017-03-27T07:45:22.549Z,7.40
2017-03-27T07:46:17.561Z,7.42
2017-03-27T07:47:21.870Z,7.37
2017-03-27T07:48:17.632Z,7.43
2017-03-27T07:49:21.489Z,7.48
2017-03-27T07:50:22.650Z,7.36
2017-03-27T07:51:22.446Z,7.45
2017-03-27T07:52:22.111Z,7.26
2017-03-27T07:53:22.489Z,7.26
2017-03-27T07:54:22.529Z,7.43
2017-03-27T07:55:22.798Z,7.48
2017-03-27T07:56:21.740Z,7.58
2017-03-27T07:57:21.688Z,7.62
2017-03-27T07:58:21.805Z,7.75
2017-03-27T07:59:21.695Z,7.75
2017-03-27T08:00:22.304Z,7.76
2017-03-27T08:01:21.904Z,7.78
2017-03-27T08:02:21.578Z,7.65
2017-03-27T08:03:21.960Z,7.55
2017-03-27T08:04:21.868Z,7.48
2017-03-27T08:05:21.770Z,7.59
2017-03-27T08:06:22.049Z,7.66
2017-03-27T08:07:22.173Z,7.72
2017-03-27T08:08:22.207Z,7.81
2017-03-27T08:09:21.797Z,7.82
2017-03-27T08:10:16.678Z,7.92
2017-03-27T08:11:22.466Z,8.01
2017-03-27T08:12:22.295Z,8.04
2017-03-27T08:13:21.538Z,8.06
2017-03-27T08:14:21.598Z,8.06
2017-03-27T08:15:22.175Z,8.01
2017-03-27T08:16:22.248Z,7.94
2017-03-27T08:17:21.727Z,8.08
2017-03-27T08:18:22.087Z,7.93
2017-03-27T08:19:21.854Z,7.95
2017-03-27T08:20:22.040Z,8.09
2017-03-27T08:21:17.094Z,8.17
2017-03-27T08:22:22.132Z,8.15
2017-03-27T08:23:22.117Z,8.12
2017-03-27T08:24:21.899Z,8.09
2017-03-27T08:25:21.847Z,8.15
2017-03-27T08:26:21.617Z,8.20
2017-03-27T08:27:22.031Z,8.12
2017-03-27T08:28:22.057Z,8.19
2017-03-27T08:29:21.718Z,8.24
2017-03-27T08:30:21.473Z,8.23
2017-03-27T08:31:17.438Z,8.19
2017-03-27T08:32:21.952Z,8.29
2017-03-27T08:33:22.062Z,8.39
2017-03-27T08:34:17.294Z,8.40
2017-03-27T08:35:21.936Z,8.46
2017-03-27T08:36:18.176Z,8.57
2017-03-27T08:37:17.312Z,8.58
2017-03-27T08:38:17.703Z,8.67
2017-03-27T08:39:22.452Z,8.69
2017-03-27T08:40:21.998Z,8.63
2017-03-27T08:41:17.337Z,8.62
2017-03-27T08:42:22.306Z,8.75
2017-03-27T08:43:21.865Z,8.71
2017-03-27T08:44:22.483Z,8.62
2017-03-27T08:45:22.022Z,8.67
2017-03-27T08:46:22.009Z,8.73
2017-03-27T08:47:22.416Z,8.78
2017-03-27T08:48:21.758Z,8.82
2017-03-27T08:49:21.567Z,8.90
2017-03-27T08:50:21.922Z,8.75
2017-03-27T08:51:21.477Z,8.65
2017-03-27T08:52:17.427Z,8.81
2017-03-27T08:53:21.858Z,8.87
2017-03-27T08:54:21.707Z,8.93
2017-03-27T08:55:21.587Z,8.96
2017-03-27T08:56:21.976Z,8.96
2017-03-27T08:57:21.741Z,9.08
2017-03-27T08:58:22.124Z,9.13
2017-03-27T08:59:22.589Z,9.10
2017-03-27T09:00:21.626Z,9.10
2017-03-27T09:01:21.602Z,9.11
2017-03-27T09:02:22.042Z,9.09
2017-03-27T09:03:16.840Z,9.04
2017-03-27T09:04:22.309Z,9.11
2017-03-27T09:05:22.679Z,9.12
2017-03-27T09:06:17.179Z,9.14
2017-03-27T09:07:21.760Z,9.15
2017-03-27T09:08:21.971Z,9.15
2017-03-27T09:09:23.164Z,9.21
2017-03-27T09:10:22.571Z,9.19
2017-03-27T09:11:22.250Z,9.20
2017-03-27T09:12:22.963Z,9.24
2017-03-27T09:13:17.102Z,9.21
2017-03-27T09:14:22.089Z,9.24
2017-03-27T09:15:22.659Z,9.27
2017-03-27T09:16:22.399Z,9.32
2017-03-27T09:17:21.673Z,9.31
2017-03-27T09:18:22.274Z,9.32
2017-03-27T09:19:22.338Z,9.40
2017-03-27T09:20:21.901Z,9.51
2017-03-27T09:21:21.615Z,9.48
2017-03-27T09:22:21.712Z,9.54
2017-03-27T09:23:22.501Z,9.63
2017-03-27T09:24:22.172Z,9.62
2017-03-27T09:25:27.285Z,9.57
2017-03-27T09:26:22.154Z,9.63
2017-03-27T09:27:22.153Z,9.66
2017-03-27T09:28:21.928Z,9.73
2017-03-27T09:29:22.398Z,9.62
2017-03-27T09:30:22.327Z,9.56
2017-03-27T09:31:22.132Z,9.64
2017-03-27T09:32:21.703Z,9.69
2017-03-27T09:33:21.813Z,9.76
2017-03-27T09:34:21.839Z,9.76
2017-03-27T09:35:22.221Z,9.79
2017-03-27T09:36:21.983Z,9.80
2017-03-27T09:37:22.094Z,9.85
2017-03-27T09:38:22.313Z,9.90
2017-03-27T09:39:21.891Z,9.94
2017-03-27T09:40:21.692Z,9.95
2017-03-27T09:41:22.220Z,10.00
2017-03-27T09:42:22.381Z,9.99
2017-03-27T09:43:28.460Z,9.97
2017-03-27T09:44:22.204Z,10.00
2017-03-27T09:45:27.321Z,10.08
2017-03-27T09:46:21.642Z,10.08
2017-03-27T09:47:22.812Z,10.19
2017-03-27T09:48:22.494Z,10.26
2017-03-27T09:49:21.762Z,10.21
2017-03-27T09:50:17.047Z,10.25
2017-03-27T09:51:22.555Z,10.34
2017-03-27T09:52:22.267Z,10.30
2017-03-27T09:54:21.804Z,10.38
2017-03-27T09:55:21.683Z,10.42
2017-03-27T09:56:22.746Z,10.44
2017-03-27T09:57:35.519Z,10.48
2017-03-27T09:58:21.573Z,10.47
2017-03-27T09:59:21.851Z,10.55
2017-03-27T10:00:17.103Z,10.53
2017-03-27T10:01:22.578Z,10.57
2017-03-27T10:02:22.034Z,10.64
2017-03-27T10:03:22.574Z,10.67
2017-03-27T10:04:22.174Z,10.70
2017-03-27T10:05:22.452Z,10.75
2017-03-27T10:06:21.673Z,10.66
2017-03-27T10:07:22.174Z,10.63
2017-03-27T10:08:17.249Z,10.80
2017-03-27T10:09:21.491Z,10.83
2017-03-27T10:10:21.593Z,10.82
2017-03-27T10:11:21.531Z,10.77
2017-03-27T10:12:16.703Z,10.74
2017-03-27T10:13:22.312Z,10.65
2017-03-27T10:14:21.723Z,10.84
2017-03-27T10:15:16.854Z,10.80
2017-03-27T10:16:21.933Z,10.75
2017-03-27T10:17:17.025Z,10.73
2017-03-27T10:18:22.573Z,10.89
2017-03-27T10:19:19.044Z,11.04
2017-03-27T10:20:21.962Z,11.03
2017-03-27T10:21:21.833Z,11.03
2017-03-27T10:22:22.236Z,10.98
2017-03-27T10:23:22.326Z,10.96
2017-03-27T10:24:22.573Z,11.09
2017-03-27T10:25:21.908Z,11.25
2017-03-27T10:26:21.938Z,11.17
2017-03-27T10:27:22.744Z,11.22
2017-03-27T10:28:27.146Z,11.26
2017-03-27T10:29:21.565Z,11.33
2017-03-27T10:30:21.834Z,11.24
2017-03-27T10:31:22.683Z,11.38
2017-03-27T10:32:22.187Z,11.32
2017-03-27T10:33:21.530Z,11.35
2017-03-27T10:34:22.417Z,11.36
2017-03-27T10:35:16.689Z,11.39
2017-03-27T10:36:22.588Z,11.40
2017-03-27T10:37:22.861Z,11.48
2017-03-27T10:38:22.482Z,11.45
2017-03-27T10:39:22.635Z,11.50
2017-03-27T10:40:17.597Z,11.47
2017-03-27T10:41:22.753Z,11.31
2017-03-27T10:42:17.584Z,11.55
2017-03-27T10:43:22.212Z,11.63
2017-03-27T10:44:21.984Z,11.59
2017-03-27T10:45:22.096Z,11.56
2017-03-27T10:46:21.917Z,11.59
2017-03-27T10:47:16.696Z,11.62
2017-03-27T10:48:21.675Z,11.80
2017-03-27T10:49:21.682Z,11.65
2017-03-27T10:50:22.192Z,11.62
2017-03-27T10:51:22.380Z,11.65
2017-03-27T10:52:22.104Z,11.59
2017-03-27T10:53:21.908Z,11.72
2017-03-27T10:54:21.579Z,11.75
2017-03-27T10:55:22.232Z,11.69
2017-03-27T10:56:22.066Z,11.77
2017-03-27T10:57:21.887Z,11.91
2017-03-27T10:58:21.722Z,11.98
2017-03-27T10:59:22.055Z,12.10
2017-03-27T11:00:21.896Z,12.11
2017-03-27T11:01:21.946Z,12.03
2017-03-27T11:02:22.995Z,12.11
2017-03-27T11:03:23.108Z,12.22
2017-03-27T11:04:33.854Z,12.26
2017-03-27T11:05:17.387Z,12.18
2017-03-27T11:06:22.087Z,12.13
2017-03-27T11:07:22.882Z,12.02
2017-03-27T11:08:22.512Z,12.07
2017-03-27T11:09:17.416Z,12.19
2017-03-27T11:10:21.735Z,12.23
2017-03-27T11:11:22.523Z,12.22
2017-03-27T11:12:22.503Z,12.19
2017-03-27T11:13:22.390Z,12.18
2017-03-27T11:14:21.709Z,12.07
2017-03-27T11:15:10.648Z,12.10
2017-03-27T11:16:09.909Z,12.23
2017-03-27T11:17:21.966Z,12.31
2017-03-27T11:18:17.412Z,12.48
2017-03-27T11:19:16.756Z,12.42
2017-03-27T11:20:21.901Z,12.38
2017-03-27T11:21:21.717Z,12.45
2017-03-27T11:22:17.099Z,12.56
2017-03-27T11:23:22.405Z,12.49
2017-03-27T11:24:24.062Z,12.38
2017-03-27T11:25:22.473Z,12.36
2017-03-27T11:26:21.746Z,12.47
2017-03-27T11:27:21.858Z,12.48
2017-03-27T11:28:22.119Z,12.59
2017-03-27T11:29:21.936Z,12.42
2017-03-27T11:30:21.542Z,12.38
2017-03-27T11:31:22.392Z,12.56
2017-03-27T11:32:22.835Z,12.68
2017-03-27T11:33:21.905Z,12.58
2017-03-27T11:34:22.017Z,12.48
2017-03-27T11:36:22.474Z,12.86
2017-03-27T11:37:21.819Z,12.79
2017-03-27T11:38:21.935Z,12.75
2017-03-27T11:39:21.918Z,12.85
2017-03-27T11:40:22.492Z,12.75
2017-03-27T11:41:22.465Z,12.75
2017-03-27T11:42:22.322Z,12.73
2017-03-27T11:43:22.775Z,12.79
2017-03-27T11:44:22.522Z,12.80
2017-03-27T11:45:22.493Z,12.78
2017-03-27T11:46:21.635Z,12.86
2017-03-27T11:47:16.928Z,12.69
2017-03-27T11:48:22.367Z,12.56
2017-03-27T11:49:21.684Z,12.64
2017-03-27T11:50:22.283Z,12.68
2017-03-27T11:51:22.743Z,12.66
2017-03-27T11:52:21.705Z,12.79
2017-03-27T11:53:21.527Z,12.98
2017-03-27T11:54:21.768Z,12.99
2017-03-27T11:55:22.523Z,12.94
2017-03-27T11:56:21.759Z,12.86
2017-03-27T11:57:22.294Z,12.98
2017-03-27T11:58:21.706Z,12.81
2017-03-27T11:59:17.418Z,12.86
2017-03-27T12:00:22.991Z,12.89
2017-03-27T12:01:22.128Z,12.87
2017-03-27T12:02:21.683Z,12.93
2017-03-27T12:03:21.936Z,13.01
2017-03-27T12:04:21.696Z,13.10
2017-03-27T12:05:21.686Z,13.11
2017-03-27T12:06:23.069Z,13.19
2017-03-27T12:07:21.831Z,13.29
2017-03-27T12:08:21.993Z,13.28
2017-03-27T12:09:22.078Z,13.30
2017-03-27T12:10:22.544Z,13.38
2017-03-27T12:11:22.191Z,13.58
2017-03-27T12:12:22.064Z,13.35
2017-03-27T12:13:22.175Z,13.33
2017-03-27T12:14:22.394Z,13.34
2017-03-27T12:15:22.476Z,13.31
2017-03-27T12:16:22.337Z,13.24
2017-03-27T12:17:21.587Z,13.36
2017-03-27T12:18:22.678Z,13.45
2017-03-27T12:19:22.290Z,13.51
2017-03-27T12:20:21.590Z,13.50
2017-03-27T12:21:21.908Z,13.51
2017-03-27T12:22:22.006Z,13.55
2017-03-27T12:23:21.802Z,13.54
2017-03-27T12:24:16.692Z,13.50
2017-03-27T12:25:23.139Z,13.54
2017-03-27T12:26:22.425Z,13.46
2017-03-27T12:27:23.429Z,13.36
2017-03-27T12:28:22.348Z,13.50
2017-03-27T12:29:22.424Z,13.41
2017-03-27T12:30:17.616Z,13.69
2017-03-27T12:31:21.823Z,13.75
2017-03-27T12:32:22.453Z,13.59
2017-03-27T12:33:22.184Z,13.78
2017-03-27T12:34:21.849Z,13.72
2017-03-27T12:35:22.425Z,13.67
2017-03-27T12:36:21.688Z,13.58
2017-03-27T12:37:22.057Z,13.70
2017-03-27T12:38:22.485Z,13.82
2017-03-27T12:39:22.799Z,13.86
2017-03-27T12:40:22.276Z,13.90
2017-03-27T12:41:22.359Z,13.78
2017-03-27T12:42:22.457Z,13.74
2017-03-27T12:43:21.590Z,13.58
2017-03-27T12:44:21.840Z,13.64
2017-03-27T12:45:21.969Z,13.77
2017-03-27T12:46:21.862Z,13.79
2017-03-27T12:47:21.867Z,13.69
2017-03-27T12:48:21.980Z,13.74
2017-03-27T12:49:21.661Z,13.80
2017-03-27T12:50:22.590Z,13.88
2017-03-27T12:51:21.799Z,13.87
2017-03-27T12:52:21.972Z,13.92
2017-03-27T12:53:21.889Z,14.21
2017-03-27T12:54:21.803Z,14.14
2017-03-27T12:55:21.868Z,14.12
2017-03-27T12:56:22.149Z,13.98
2017-03-27T12:57:22.317Z,14.14
2017-03-27T12:58:21.820Z,14.16
2017-03-27T12:59:21.850Z,14.12
2017-03-27T13:00:16.601Z,14.39
2017-03-27T13:01:22.362Z,14.37
2017-03-27T13:02:22.360Z,14.34
2017-03-27T13:03:17.262Z,14.29
2017-03-27T13:04:21.777Z,14.31
2017-03-27T13:05:22.579Z,14.52
2017-03-27T13:06:22.750Z,14.43
2017-03-27T13:07:17.615Z,14.62
2017-03-27T13:08:22.600Z,14.59
2017-03-27T13:09:16.628Z,14.48
2017-03-27T13:10:21.865Z,14.61
2017-03-27T13:11:17.065Z,14.63
2017-03-27T13:12:22.630Z,14.78
2017-03-27T13:13:21.652Z,15.08
2017-03-27T13:14:21.962Z,14.99
2017-03-27T13:15:21.942Z,15.06
2017-03-27T13:16:22.616Z,15.05
2017-03-27T13:17:17.510Z,14.98
2017-03-27T13:18:22.342Z,14.99
2017-03-27T13:19:22.468Z,15.07
2017-03-27T13:20:22.190Z,15.07
2017-03-27T13:21:22.161Z,15.15
2017-03-27T13:22:22.418Z,15.17
2017-03-27T13:23:22.586Z,15.21
2017-03-27T13:24:21.562Z,15.37
2017-03-27T13:25:22.529Z,15.44
2017-03-27T13:26:22.182Z,15.51
2017-03-27T13:27:19.419Z,15.59
2017-03-27T13:28:21.635Z,15.67
2017-03-27T13:29:21.677Z,15.64
2017-03-27T13:30:21.551Z,15.74
2017-03-27T13:31:21.904Z,15.80
2017-03-27T13:32:22.043Z,15.91
2017-03-27T13:33:21.744Z,15.90
2017-03-27T13:34:21.716Z,15.79
2017-03-27T13:35:21.822Z,15.77
2017-03-27T13:36:21.755Z,15.82
2017-03-27T13:37:21.822Z,15.77
2017-03-27T13:38:22.204Z,15.85
2017-03-27T13:39:22.062Z,15.86
2017-03-27T13:40:22.380Z,15.89
2017-03-27T13:41:17.549Z,16.74
2017-03-27T13:42:22.033Z,18.84
2017-03-27T13:43:22.139Z,20.15
2017-03-27T13:44:21.692Z,22.12
2017-03-27T13:45:21.872Z,23.08
2017-03-27T13:46:21.831Z,23.52
2017-03-27T13:47:22.061Z,24.24
2017-03-27T13:48:22.171Z,22.91